Time;durP1;ratioP1;P1;durP2;ratioP2;P2;SDS_P1;SDS_P2;PMS_P1;PMS_P2;Temp;Humidity;BMP_temperature;BMP_pressure;BME280_temperature;BME280_humidity;BME280_pressure;Samples;Min_cycle;Max_cycle;Signal;HPM_P1;HPM_P2
2022/08/14 00:02:03;;;;;;;11.38;10.32;;;;;;;;;;5095714;28;20032;-85
2022/08/14 00:04:33;;;;;;;11.88;10.68;;;;;;;;;;5081072;28;20028;-84
2022/08/14 00:06:59;;;;;;;11.27;10.27;;;;;;;;;;5086707;28;20042;-85
2022/08/14 00:09:25;;;;;;;11.27;10.27;;;;;;;;;;5094099;28;20390;-83
2022/08/14 00:11:51;;;;;;;11.38;10.43;;;;;;;;;;5094438;28;20043;-85
2022/08/14 00:14:18;;;;;;;12.40;11.38;;;;;;;;;;5094818;28;20024;-88
2022/08/14 00:16:44;;;;;;;13.13;11.95;;;;;;;;;;5093436;28;20032;-85
2022/08/14 00:19:10;;;;;;;12.82;11.77;;;;;;;;;;5074767;28;20031;-88
2022/08/14 00:21:37;;;;;;;14.15;12.85;;;;;;;;;;5073551;28;20025;-84
2022/08/14 00:24:03;;;;;;;13.60;12.40;;;;;;;;;;5074131;28;20043;-84
2022/08/14 00:26:29;;;;;;;12.45;11.35;;;;;;;;;;5074027;28;20111;-87
2022/08/14 00:28:56;;;;;;;13.10;12.00;;;;;;;;;;5092971;28;20437;-81
2022/08/14 00:31:22;;;;;;;12.75;11.70;;;;;;;;;;5094119;28;20089;-85
2022/08/14 00:33:49;;;;;;;14.57;13.27;;;;;;;;;;5093478;28;20028;-86
2022/08/14 00:36:15;;;;;;;12.52;11.45;;;;;;;;;;5093502;28;20101;-83
2022/08/14 00:38:41;;;;;;;12.95;11.85;;;;;;;;;;5075841;28;20467;-82
2022/08/14 00:41:08;;;;;;;14.35;13.05;;;;;;;;;;5072864;28;20028;-85
2022/08/14 00:43:34;;;;;;;12.70;11.57;;;;;;;;;;5072406;28;20106;-88
2022/08/14 00:46:02;;;;;;;13.70;12.15;;;;;;;;;;5072958;28;20039;-87
2022/08/14 00:48:28;;;;;;;14.73;13.43;;;;;;;;;;5086867;28;20495;-85
2022/08/14 00:50:54;;;;;;;15.38;13.98;;;;;;;;;;5092759;28;20020;-84
2022/08/14 00:53:22;;;;;;;15.23;13.98;;;;;;;;;;5091726;28;20075;-87
2022/08/14 00:55:50;;;;;;;15.30;13.98;;;;;;;;;;5092783;28;20028;-84
2022/08/14 01:01:07;;;;;;;12.35;11.35;;;;;;;;;;5090375;28;20452;-84
2022/08/14 01:03:36;;;;;;;12.00;11.00;;;;;;;;;;5092686;28;20028;-81
2022/08/14 01:06:07;;;;;;;12.02;10.93;;;;;;;;;;5093003;28;20027;-87
2022/08/14 01:08:33;;;;;;;12.43;11.32;;;;;;;;;;5077923;28;20036;-86
2022/08/14 01:10:59;;;;;;;12.65;11.55;;;;;;;;;;5072813;28;20119;-88
2022/08/14 01:13:44;;;;;;;14.05;12.75;;;;;;;;;;5072572;28;20060;-85
2022/08/14 01:16:15;;;;;;;12.65;11.65;;;;;;;;;;5072381;28;20021;-86
2022/08/14 01:21:34;;;;;;;13.95;12.70;;;;;;;;;;5092697;28;20066;-85
2022/08/14 01:24:00;;;;;;;12.65;11.63;;;;;;;;;;5092649;28;20429;-87
2022/08/14 01:26:27;;;;;;;13.32;12.13;;;;;;;;;;5092692;28;20107;-86
2022/08/14 01:28:54;;;;;;;13.55;12.32;;;;;;;;;;5074944;28;20048;-85
2022/08/14 01:31:22;;;;;;;14.98;13.70;;;;;;;;;;5072810;28;20101;-87
2022/08/14 01:33:52;;;;;;;14.55;13.25;;;;;;;;;;5072314;28;20108;-88
2022/08/14 01:36:19;;;;;;;13.43;12.15;;;;;;;;;;5073619;28;20103;-87
2022/08/14 01:38:47;;;;;;;14.90;13.50;;;;;;;;;;5072002;28;20099;-84
2022/08/14 01:41:15;;;;;;;15.70;14.40;;;;;;;;;;5072158;28;20564;-85
2022/08/14 01:44:01;;;;;;;15.55;14.25;;;;;;;;;;5072018;28;20028;-86
2022/08/14 01:46:32;;;;;;;14.50;13.20;;;;;;;;;;5079831;28;20024;-86
2022/08/14 01:48:59;;;;;;;17.45;15.95;;;;;;;;;;5092156;28;20032;-88
2022/08/14 01:51:27;;;;;;;18.73;17.13;;;;;;;;;;5091831;28;20039;-84
2022/08/14 01:53:57;;;;;;;15.82;14.43;;;;;;;;;;5090893;28;20044;-85
2022/08/14 01:56:36;;;;;;;14.88;13.65;;;;;;;;;;5085917;28;20035;-85
2022/08/14 01:59:03;;;;;;;15.32;13.93;;;;;;;;;;5075879;28;20055;-84
2022/08/14 02:01:29;;;;;;;14.32;13.13;;;;;;;;;;5075822;28;20035;-85
2022/08/14 02:03:56;;;;;;;15.75;14.30;;;;;;;;;;5075813;28;20121;-86
2022/08/14 02:06:23;;;;;;;14.65;13.35;;;;;;;;;;5082535;28;20031;-85
2022/08/14 02:08:49;;;;;;;15.30;14.10;;;;;;;;;;5082890;28;20036;-86
2022/08/14 02:11:15;;;;;;;17.25;15.80;;;;;;;;;;5075356;28;20056;-87
2022/08/14 02:13:47;;;;;;;15.90;14.60;;;;;;;;;;5075773;28;20078;-88
2022/08/14 02:16:15;;;;;;;15.25;13.95;;;;;;;;;;5076315;28;20056;-89
2022/08/14 02:18:48;;;;;;;15.45;14.13;;;;;;;;;;5075823;28;20035;-90
2022/08/14 02:21:17;;;;;;;15.27;13.88;;;;;;;;;;5074458;28;20033;-86
2022/08/14 02:23:45;;;;;;;15.07;13.73;;;;;;;;;;5074378;28;20093;-87
2022/08/14 02:26:30;;;;;;;16.20;14.70;;;;;;;;;;5080463;28;20046;-87
2022/08/14 02:29:00;;;;;;;15.63;14.32;;;;;;;;;;5094219;28;20040;-89
2022/08/14 02:31:31;;;;;;;13.45;12.35;;;;;;;;;;5095789;28;20089;-86
2022/08/14 02:33:57;;;;;;;14.27;12.93;;;;;;;;;;5094200;28;20034;-86
2022/08/14 02:36:23;;;;;;;14.93;13.52;;;;;;;;;;5087197;28;20028;-85
2022/08/14 02:38:49;;;;;;;13.25;12.05;;;;;;;;;;5075193;28;20372;-84
2022/08/14 02:41:16;;;;;;;13.52;12.18;;;;;;;;;;5075365;28;20028;-85
2022/08/14 02:43:45;;;;;;;13.07;12.05;;;;;;;;;;5075193;28;20020;-86
2022/08/14 02:46:11;;;;;;;13.15;11.88;;;;;;;;;;5080860;28;20508;-85
2022/08/14 02:48:39;;;;;;;14.23;12.93;;;;;;;;;;5094984;28;20054;-86
2022/08/14 02:51:07;;;;;;;12.45;11.35;;;;;;;;;;5094509;28;20028;-85
2022/08/14 02:53:33;;;;;;;11.65;10.55;;;;;;;;;;5095225;28;20107;-86
2022/08/14 02:56:00;;;;;;;13.05;11.60;;;;;;;;;;5090559;28;20460;-86
2022/08/14 02:58:26;;;;;;;11.00;10.00;;;;;;;;;;5073634;28;20035;-84
2022/08/14 03:00:54;;;;;;;11.75;10.75;;;;;;;;;;5074766;28;20020;-88
2022/08/14 03:03:22;;;;;;;12.02;10.93;;;;;;;;;;5073523;28;20119;-85
2022/08/14 03:05:50;;;;;;;12.02;10.85;;;;;;;;;;5076396;28;20036;-85
2022/08/14 03:08:16;;;;;;;10.68;9.68;;;;;;;;;;5094339;28;20031;-88
2022/08/14 03:10:43;;;;;;;10.70;9.70;;;;;;;;;;5094642;28;20020;-86
2022/08/14 03:13:09;;;;;;;10.45;9.48;;;;;;;;;;5093440;28;20031;-86
2022/08/14 03:15:40;;;;;;;9.65;8.82;;;;;;;;;;5094092;28;20028;-85
2022/08/14 03:18:09;;;;;;;9.25;8.35;;;;;;;;;;5074565;28;20024;-83
2022/08/14 03:20:35;;;;;;;8.85;8.07;;;;;;;;;;5075699;28;20021;-85
2022/08/14 03:23:04;;;;;;;9.85;8.85;;;;;;;;;;5089332;28;20390;-85
2022/08/14 03:25:38;;;;;;;7.63;6.93;;;;;;;;;;5073150;28;20052;-88
2022/08/14 03:28:05;;;;;;;7.28;6.50;;;;;;;;;;5073217;28;20395;-86
2022/08/14 03:30:32;;;;;;;7.18;6.47;;;;;;;;;;5080306;28;20027;-86
2022/08/14 03:32:58;;;;;;;7.00;6.40;;;;;;;;;;5093270;28;20126;-85
2022/08/14 03:35:25;;;;;;;7.63;6.15;;;;;;;;;;5094144;28;20030;-85
2022/08/14 03:37:54;;;;;;;7.18;6.57;;;;;;;;;;5094302;28;20099;-86
2022/08/14 03:40:21;;;;;;;7.45;6.85;;;;;;;;;;5083094;28;20055;-85
2022/08/14 03:42:47;;;;;;;7.63;6.90;;;;;;;;;;5074812;28;20031;-85
2022/08/14 03:45:14;;;;;;;8.23;7.43;;;;;;;;;;5073770;28;20032;-86
2022/08/14 03:47:40;;;;;;;8.40;6.97;;;;;;;;;;5073275;28;20053;-86
2022/08/14 03:50:09;;;;;;;9.02;8.20;;;;;;;;;;5084323;28;20036;-86
2022/08/14 03:52:36;;;;;;;7.97;7.18;;;;;;;;;;5073661;28;20475;-85
2022/08/14 03:55:05;;;;;;;8.85;6.40;;;;;;;;;;5083441;28;20390;-84
2022/08/14 03:57:31;;;;;;;8.25;7.55;;;;;;;;;;5093731;28;20057;-85
2022/08/14 03:59:58;;;;;;;8.30;6.80;;;;;;;;;;5093633;28;20028;-84
2022/08/14 04:02:24;;;;;;;7.15;6.50;;;;;;;;;;5084808;28;20028;-85
2022/08/14 04:04:52;;;;;;;8.23;7.15;;;;;;;;;;5084642;28;20024;-86
2022/08/14 04:07:18;;;;;;;7.43;6.82;;;;;;;;;;5084031;28;20035;-83
2022/08/14 04:09:44;;;;;;;7.00;6.35;;;;;;;;;;5071533;28;20052;-85
2022/08/14 04:12:11;;;;;;;7.43;6.57;;;;;;;;;;5073263;28;20032;-84
2022/08/14 04:14:37;;;;;;;6.65;6.03;;;;;;;;;;5080863;28;20073;-85
2022/08/14 04:17:03;;;;;;;7.00;6.40;;;;;;;;;;5072821;28;20064;-84
2022/08/14 04:19:29;;;;;;;7.00;6.32;;;;;;;;;;5080559;28;20028;-85
2022/08/14 04:21:55;;;;;;;6.93;6.22;;;;;;;;;;5079302;28;20393;-84
2022/08/14 04:24:22;;;;;;;6.95;6.28;;;;;;;;;;5073154;28;20107;-85
2022/08/14 04:26:48;;;;;;;7.30;6.07;;;;;;;;;;5075564;28;20106;-86
2022/08/14 04:29:14;;;;;;;7.60;6.72;;;;;;;;;;5092819;28;20054;-85
2022/08/14 04:31:41;;;;;;;7.60;7.00;;;;;;;;;;5081643;28;20021;-86
2022/08/14 04:34:07;;;;;;;7.40;6.65;;;;;;;;;;5077830;28;20167;-87
2022/08/14 04:43:34;;;;;;;7.50;6.75;;;;;;;;;;5090720;28;20084;-83
2022/08/14 04:44:49;;;;;;;9.07;8.18;;;;;;;;;;5083643;28;19941;-83
2022/08/14 04:50:02;;;;;;;;;;;;;;;;;;5072902;28;20560;-85
2022/08/14 04:52:28;;;;;;;8.48;7.68;;;;;;;;;;5076561;28;19915;-86
2022/08/14 04:54:54;;;;;;;8.23;7.53;;;;;;;;;;5072534;28;20116;-85
2022/08/14 04:57:20;;;;;;;8.02;7.32;;;;;;;;;;5073445;28;20024;-85
2022/08/14 04:59:46;;;;;;;8.23;7.43;;;;;;;;;;5083405;28;20032;-85
2022/08/14 05:02:15;;;;;;;8.27;7.53;;;;;;;;;;5080737;28;20467;-85
2022/08/14 05:04:41;;;;;;;8.20;7.50;;;;;;;;;;5077968;28;20027;-85
2022/08/14 05:07:07;;;;;;;8.57;7.78;;;;;;;;;;5074234;28;20024;-86
2022/08/14 05:09:33;;;;;;;9.40;8.43;;;;;;;;;;5084854;28;20089;-84
2022/08/14 05:11:59;;;;;;;7.95;7.15;;;;;;;;;;5076197;28;20032;-84
2022/08/14 05:14:26;;;;;;;7.47;6.72;;;;;;;;;;5072156;28;20063;-84
2022/08/14 05:16:56;;;;;;;7.85;7.15;;;;;;;;;;5087108;28;20076;-84
2022/08/14 05:19:26;;;;;;;8.07;7.38;;;;;;;;;;5078606;28;20039;-86
2022/08/14 05:21:57;;;;;;;7.95;7.25;;;;;;;;;;5091665;28;20039;-87
2022/08/14 05:24:23;;;;;;;8.88;8.07;;;;;;;;;;5083419;28;20035;-87
2022/08/14 05:26:49;;;;;;;9.00;8.13;;;;;;;;;;5090304;28;20028;-85
2022/08/14 05:29:16;;;;;;;8.68;7.88;;;;;;;;;;5089295;28;20043;-85
2022/08/14 05:31:42;;;;;;;9.63;8.73;;;;;;;;;;5090832;28;20020;-87
2022/08/14 05:34:09;;;;;;;8.48;7.78;;;;;;;;;;5092178;28;20173;-85
2022/08/14 05:36:35;;;;;;;8.35;7.60;;;;;;;;;;5092310;28;20028;-85
2022/08/14 05:39:02;;;;;;;9.65;8.75;;;;;;;;;;5083899;28;20071;-84
2022/08/14 05:41:28;;;;;;;8.43;7.60;;;;;;;;;;5083888;28;20046;-84
2022/08/14 05:43:54;;;;;;;8.93;8.13;;;;;;;;;;5089865;28;20034;-85
2022/08/14 05:46:23;;;;;;;7.78;6.97;;;;;;;;;;5076538;28;20036;-86
2022/08/14 05:48:50;;;;;;;7.95;7.25;;;;;;;;;;5074128;28;20131;-84
2022/08/14 05:51:16;;;;;;;8.05;7.18;;;;;;;;;;5077397;28;20020;-85
2022/08/14 05:53:43;;;;;;;7.60;6.90;;;;;;;;;;5085780;28;20027;-84
2022/08/14 05:56:09;;;;;;;9.70;6.53;;;;;;;;;;5087724;28;20119;-84
2022/08/14 05:58:35;;;;;;;8.43;7.63;;;;;;;;;;5091027;28;20024;-84
2022/08/14 06:01:01;;;;;;;7.00;6.40;;;;;;;;;;5087388;28;20042;-87
2022/08/14 06:03:28;;;;;;;8.25;5.93;;;;;;;;;;5085987;28;20028;-83
2022/08/14 06:05:54;;;;;;;8.05;6.47;;;;;;;;;;5082227;28;20025;-85
2022/08/14 06:08:22;;;;;;;7.32;6.63;;;;;;;;;;5075483;28;20021;-86
2022/08/14 06:10:49;;;;;;;7.88;7.07;;;;;;;;;;5083602;28;20368;-87
2022/08/14 06:13:15;;;;;;;6.93;6.32;;;;;;;;;;5083798;28;20382;-85
2022/08/14 06:15:44;;;;;;;6.65;6.07;;;;;;;;;;5084325;28;20375;-88
2022/08/14 06:18:11;;;;;;;6.10;5.60;;;;;;;;;;5094915;28;20062;-83
2022/08/14 06:20:38;;;;;;;6.65;5.85;;;;;;;;;;5082750;28;20024;-86
2022/08/14 06:23:04;;;;;;;6.18;5.57;;;;;;;;;;5075250;28;20074;-85
2022/08/14 06:25:30;;;;;;;6.05;4.95;;;;;;;;;;5074163;28;20068;-85
2022/08/14 06:27:57;;;;;;;5.72;5.13;;;;;;;;;;5073809;28;20475;-83
2022/08/14 06:30:25;;;;;;;7.20;5.78;;;;;;;;;;5085968;28;20058;-87
2022/08/14 06:32:51;;;;;;;7.75;5.10;;;;;;;;;;5082462;28;20051;-84
2022/08/14 06:35:19;;;;;;;6.93;5.60;;;;;;;;;;5094395;28;20031;-86
2022/08/14 06:37:46;;;;;;;5.18;4.68;;;;;;;;;;5094294;28;20052;-86
2022/08/14 06:40:13;;;;;;;5.75;4.97;;;;;;;;;;5093990;28;20062;-87
2022/08/14 06:42:40;;;;;;;5.95;5.38;;;;;;;;;;5094986;28;20036;-85
2022/08/14 06:45:06;;;;;;;6.68;5.43;;;;;;;;;;5095417;28;20467;-85
2022/08/14 06:47:34;;;;;;;6.32;5.50;;;;;;;;;;5095068;28;20056;-86
2022/08/14 06:50:00;;;;;;;5.72;5.22;;;;;;;;;;5095133;28;20031;-84
2022/08/14 06:52:26;;;;;;;6.07;5.57;;;;;;;;;;5094115;28;20032;-85
2022/08/14 06:54:52;;;;;;;5.93;5.38;;;;;;;;;;5093735;28;20032;-86
2022/08/14 06:57:19;;;;;;;6.38;5.32;;;;;;;;;;5095302;28;20085;-85
2022/08/14 06:59:45;;;;;;;6.47;5.88;;;;;;;;;;5094945;28;20024;-86
2022/08/14 07:07:40;;;;;;;6.80;5.15;;;;;;;;;;5094784;28;20070;-85
2022/08/14 07:10:07;;;;;;;4.88;4.45;;;;;;;;;;5093325;28;20034;-84
2022/08/14 07:12:34;;;;;;;5.10;4.70;;;;;;;;;;5094782;28;20020;-86
2022/08/14 07:15:01;;;;;;;5.22;4.60;;;;;;;;;;5094862;28;20024;-84
2022/08/14 07:17:27;;;;;;;5.85;5.25;;;;;;;;;;5094635;28;20035;-84
2022/08/14 07:19:54;;;;;;;4.47;4.07;;;;;;;;;;5093450;28;20540;-84
2022/08/14 07:22:20;;;;;;;7.00;5.90;;;;;;;;;;5093382;28;20032;-85
2022/08/14 07:24:46;;;;;;;5.03;4.60;;;;;;;;;;5094443;28;20032;-85
2022/08/14 07:27:13;;;;;;;6.65;5.60;;;;;;;;;;5093235;28;20055;-87
2022/08/14 07:29:39;;;;;;;4.85;4.45;;;;;;;;;;5091923;28;20040;-86
2022/08/14 07:32:05;;;;;;;7.05;5.32;;;;;;;;;;5094518;28;20028;-86
2022/08/14 07:34:31;;;;;;;5.18;4.63;;;;;;;;;;5082126;28;20028;-84
2022/08/14 07:36:58;;;;;;;5.57;4.55;;;;;;;;;;5074006;28;20460;-85
2022/08/14 07:39:26;;;;;;;6.22;5.15;;;;;;;;;;5074824;28;20519;-86
2022/08/14 07:41:52;;;;;;;5.20;4.20;;;;;;;;;;5072729;28;20024;-86
2022/08/14 07:44:19;;;;;;;5.10;4.20;;;;;;;;;;5076630;28;20033;-86
2022/08/14 07:46:45;;;;;;;8.52;4.05;;;;;;;;;;5075883;28;20193;-85
2022/08/14 07:49:12;;;;;;;4.63;3.65;;;;;;;;;;5085101;28;20036;-86
2022/08/14 07:51:39;;;;;;;4.30;3.90;;;;;;;;;;5080077;28;20063;-86
2022/08/14 07:54:06;;;;;;;4.07;3.70;;;;;;;;;;5092570;28;20040;-87
2022/08/14 07:56:32;;;;;;;4.03;3.67;;;;;;;;;;5093336;28;20020;-87
2022/08/14 07:58:58;;;;;;;3.42;3.13;;;;;;;;;;5095562;28;20024;-87
2022/08/14 08:01:25;;;;;;;5.22;3.70;;;;;;;;;;5094322;28;20028;-86
2022/08/14 08:03:51;;;;;;;4.13;3.72;;;;;;;;;;5094837;28;20048;-86
2022/08/14 08:06:17;;;;;;;5.15;4.68;;;;;;;;;;5094415;28;20028;-86
2022/08/14 08:08:45;;;;;;;5.03;4.20;;;;;;;;;;5093315;28;20040;-87
2022/08/14 08:11:12;;;;;;;4.63;3.80;;;;;;;;;;5093093;28;20035;-87
2022/08/14 08:13:41;;;;;;;5.13;3.35;;;;;;;;;;5094892;28;20107;-87
2022/08/14 08:16:07;;;;;;;3.38;2.75;;;;;;;;;;5094909;28;20112;-88
2022/08/14 08:18:34;;;;;;;3.75;3.45;;;;;;;;;;5094991;28;20117;-87
2022/08/14 08:21:00;;;;;;;6.45;4.38;;;;;;;;;;5094225;28;20035;-86
2022/08/14 08:23:28;;;;;;;3.50;3.20;;;;;;;;;;5093955;28;20111;-84
2022/08/14 08:25:57;;;;;;;17.20;15.65;;;;;;;;;;5093254;28;20066;-85
2022/08/14 08:28:25;;;;;;;3.83;3.53;;;;;;;;;;5093348;28;20493;-85
2022/08/14 08:30:53;;;;;;;3.55;3.20;;;;;;;;;;5093510;28;20063;-87
2022/08/14 08:33:20;;;;;;;3.00;2.72;;;;;;;;;;5092663;28;20031;-87
2022/08/14 08:35:47;;;;;;;3.40;3.10;;;;;;;;;;5094360;28;20020;-87
2022/08/14 08:38:20;;;;;;;3.35;2.90;;;;;;;;;;5093234;28;20035;-85
2022/08/14 08:40:50;;;;;;;3.47;2.80;;;;;;;;;;5088864;28;20115;-86
2022/08/14 08:43:20;;;;;;;3.28;3.08;;;;;;;;;;5093504;28;20047;-89
2022/08/14 08:46:02;;;;;;;3.15;2.80;;;;;;;;;;5093389;28;20027;-88
2022/08/14 08:48:29;;;;;;;3.92;3.45;;;;;;;;;;5093449;28;20056;-84
2022/08/14 08:51:01;;;;;;;4.70;4.10;;;;;;;;;;5092335;28;20082;-86
2022/08/14 08:53:31;;;;;;;4.18;3.17;;;;;;;;;;5092731;28;20035;-87
2022/08/14 08:55:57;;;;;;;3.70;3.40;;;;;;;;;;5094431;28;20059;-88
2022/08/14 08:58:24;;;;;;;3.67;3.25;;;;;;;;;;5093893;28;20031;-86
2022/08/14 09:00:52;;;;;;;3.33;3.03;;;;;;;;;;5093678;28;20031;-89
2022/08/14 09:03:20;;;;;;;3.00;2.67;;;;;;;;;;5091971;28;20107;-84
2022/08/14 09:05:51;;;;;;;3.65;2.88;;;;;;;;;;5094360;28;20490;-87
2022/08/14 09:08:18;;;;;;;3.08;2.78;;;;;;;;;;5092999;28;20066;-84
2022/08/14 09:10:45;;;;;;;4.25;2.88;;;;;;;;;;5093183;28;20043;-87
2022/08/14 09:13:11;;;;;;;2.70;2.50;;;;;;;;;;5091419;28;20535;-87
2022/08/14 09:15:44;;;;;;;3.53;3.22;;;;;;;;;;5092813;28;20069;-86
2022/08/14 09:18:11;;;;;;;3.65;3.35;;;;;;;;;;5091875;28;20169;-84
2022/08/14 09:20:39;;;;;;;4.28;3.90;;;;;;;;;;5092322;28;20060;-83
2022/08/14 09:23:05;;;;;;;4.00;3.70;;;;;;;;;;5092714;28;20028;-87
2022/08/14 09:25:32;;;;;;;4.30;3.90;;;;;;;;;;5093196;28;20158;-87
2022/08/14 09:27:58;;;;;;;4.45;3.90;;;;;;;;;;5092673;28;20035;-84
2022/08/14 09:30:24;;;;;;;5.05;4.10;;;;;;;;;;5091163;28;20043;-86
2022/08/14 09:32:51;;;;;;;3.00;2.80;;;;;;;;;;5092550;28;20097;-83
2022/08/14 09:35:23;;;;;;;4.15;3.75;;;;;;;;;;5092543;28;20032;-82
2022/08/14 09:38:07;;;;;;;3.00;2.70;;;;;;;;;;5092448;28;20463;-84
2022/08/14 09:40:50;;;;;;;3.03;2.83;;;;;;;;;;5092614;28;20036;-83
2022/08/14 09:43:29;;;;;;;4.05;2.67;;;;;;;;;;5092674;28;20028;-85
2022/08/14 09:45:57;;;;;;;2.95;2.65;;;;;;;;;;5092514;28;20039;-86
2022/08/14 09:48:24;;;;;;;3.10;2.88;;;;;;;;;;5091800;28;20384;-87
2022/08/14 09:50:52;;;;;;;4.97;2.70;;;;;;;;;;5092159;28;20032;-82
2022/08/14 09:53:37;;;;;;;3.20;2.90;;;;;;;;;;5088616;28;20020;-86
2022/08/14 09:56:03;;;;;;;3.83;3.00;;;;;;;;;;5070730;28;20481;-86
2022/08/14 09:58:37;;;;;;;3.75;3.00;;;;;;;;;;5078978;28;20471;-82
2022/08/14 10:01:14;;;;;;;3.22;2.95;;;;;;;;;;5072765;28;20040;-83
2022/08/14 10:03:59;;;;;;;3.58;3.28;;;;;;;;;;5071716;28;20420;-85
2022/08/14 10:06:27;;;;;;;3.25;2.95;;;;;;;;;;5076142;28;20074;-85
2022/08/14 10:09:05;;;;;;;3.22;2.92;;;;;;;;;;5082885;28;20059;-85
2022/08/14 10:11:36;;;;;;;3.67;3.08;;;;;;;;;;5080067;28;20056;-85
2022/08/14 10:14:23;;;;;;;3.50;3.20;;;;;;;;;;5091315;28;20098;-85
2022/08/14 10:16:52;;;;;;;3.53;3.22;;;;;;;;;;5094413;28;20055;-84
2022/08/14 10:19:18;;;;;;;3.05;2.65;;;;;;;;;;5095904;28;20042;-84
2022/08/14 10:21:56;;;;;;;4.22;2.80;;;;;;;;;;5095759;28;20027;-81
2022/08/14 10:24:23;;;;;;;2.95;2.75;;;;;;;;;;5095762;28;20024;-85
2022/08/14 10:26:53;;;;;;;3.40;3.10;;;;;;;;;;5086613;28;20472;-84
2022/08/14 10:29:30;;;;;;;2.95;2.67;;;;;;;;;;5076848;28;20039;-86
2022/08/14 10:31:58;;;;;;;2.90;2.60;;;;;;;;;;5094364;28;20399;-86
2022/08/14 10:34:30;;;;;;;4.20;2.83;;;;;;;;;;5087035;28;20467;-81
2022/08/14 10:37:02;;;;;;;3.40;2.38;;;;;;;;;;5078338;28;20040;-86
2022/08/14 10:39:29;;;;;;;2.38;2.17;;;;;;;;;;5083770;28;20103;-83
2022/08/14 10:42:05;;;;;;;3.63;2.65;;;;;;;;;;5074716;28;20490;-84
2022/08/14 10:44:38;;;;;;;2.40;2.20;;;;;;;;;;5087003;28;20103;-80
2022/08/14 10:47:12;;;;;;;3.17;2.55;;;;;;;;;;5094003;28;20071;-84
2022/08/14 10:49:48;;;;;;;2.42;2.10;;;;;;;;;;5082908;28;20445;-82
2022/08/14 10:52:34;;;;;;;3.03;2.40;;;;;;;;;;5084131;28;20024;-86
2022/08/14 10:55:12;;;;;;;2.53;2.33;;;;;;;;;;5093997;28;20032;-81
2022/08/14 10:57:49;;;;;;;3.10;2.70;;;;;;;;;;5095148;28;20501;-85
2022/08/14 11:00:16;;;;;;;6.65;5.95;;;;;;;;;;5083349;28;20533;-85
2022/08/14 11:02:43;;;;;;;2.75;2.55;;;;;;;;;;5079114;28;20093;-85
2022/08/14 11:05:12;;;;;;;2.80;2.20;;;;;;;;;;5092693;28;20055;-84
2022/08/14 11:07:39;;;;;;;2.90;2.70;;;;;;;;;;5074276;28;20027;-87
2022/08/14 11:10:13;;;;;;;3.13;2.92;;;;;;;;;;5074164;28;20036;-85
2022/08/14 11:12:46;;;;;;;2.67;2.30;;;;;;;;;;5078665;28;20449;-83
2022/08/14 11:15:31;;;;;;;3.08;2.88;;;;;;;;;;5085653;28;20027;-84
2022/08/14 11:17:57;;;;;;;3.08;2.78;;;;;;;;;;5080531;28;20034;-88
2022/08/14 11:20:25;;;;;;;3.22;2.92;;;;;;;;;;5080505;28;20119;-85
2022/08/14 11:22:53;;;;;;;3.17;2.85;;;;;;;;;;5080459;28;20034;-85
2022/08/14 11:25:22;;;;;;;3.05;2.75;;;;;;;;;;5076369;28;20044;-86
2022/08/14 11:27:48;;;;;;;2.30;2.20;;;;;;;;;;5081666;28;20025;-86
2022/08/14 11:30:17;;;;;;;2.72;2.53;;;;;;;;;;5085302;28;20032;-86
2022/08/14 11:32:44;;;;;;;2.83;2.53;;;;;;;;;;5083991;28;20598;-85
2022/08/14 11:35:14;;;;;;;3.50;2.30;;;;;;;;;;5080736;28;20035;-88
2022/08/14 11:38:00;;;;;;;2.72;2.53;;;;;;;;;;5074882;28;20059;-86
2022/08/14 11:40:30;;;;;;;3.20;2.90;;;;;;;;;;5074129;28;20119;-84
2022/08/14 11:42:56;;;;;;;2.80;2.60;;;;;;;;;;5073764;28;20028;-87
2022/08/14 11:45:24;;;;;;;3.45;2.80;;;;;;;;;;5074115;28;20112;-86
2022/08/14 11:47:51;;;;;;;3.22;3.03;;;;;;;;;;5072486;28;20085;-87
2022/08/14 11:50:20;;;;;;;2.25;2.05;;;;;;;;;;5072476;28;20032;-88
2022/08/14 11:52:46;;;;;;;3.42;2.80;;;;;;;;;;5072743;28;20033;-86
2022/08/14 11:55:13;;;;;;;3.42;3.08;;;;;;;;;;5072172;28;20028;-87
2022/08/14 11:57:39;;;;;;;2.55;2.30;;;;;;;;;;5073536;28;20021;-87
2022/08/14 12:00:08;;;;;;;2.80;2.60;;;;;;;;;;5072141;28;20028;-85
2022/08/14 12:02:35;;;;;;;3.33;2.78;;;;;;;;;;5073682;28;20486;-87
2022/08/14 12:05:01;;;;;;;2.70;2.50;;;;;;;;;;5073095;28;20028;-88
2022/08/14 12:07:27;;;;;;;2.83;2.63;;;;;;;;;;5072379;28;20035;-88
2022/08/14 12:09:55;;;;;;;2.70;2.50;;;;;;;;;;5071908;28;20119;-86
2022/08/14 12:12:22;;;;;;;3.42;2.50;;;;;;;;;;5072093;28;20485;-89
2022/08/14 12:14:55;;;;;;;3.42;2.90;;;;;;;;;;5072467;28;20484;-87
2022/08/14 12:17:22;;;;;;;2.97;2.67;;;;;;;;;;5073410;28;20032;-88
2022/08/14 12:20:07;;;;;;;3.53;3.08;;;;;;;;;;5073316;28;20016;-88
2022/08/14 12:22:41;;;;;;;3.00;2.65;;;;;;;;;;5073158;28;20021;-85
2022/08/14 12:25:11;;;;;;;3.58;2.97;;;;;;;;;;5073228;28;20034;-88
2022/08/14 12:27:41;;;;;;;3.47;2.67;;;;;;;;;;5071734;28;20082;-88
2022/08/14 12:30:07;;;;;;;3.53;3.25;;;;;;;;;;5072839;28;20028;-87
2022/08/14 12:32:52;;;;;;;3.40;3.10;;;;;;;;;;5071520;28;20472;-87
2022/08/14 12:35:18;;;;;;;3.65;2.70;;;;;;;;;;5071639;28;20035;-88
2022/08/14 12:37:48;;;;;;;3.03;2.80;;;;;;;;;;5071693;28;20463;-87
2022/08/14 12:40:15;;;;;;;2.50;2.30;;;;;;;;;;5071122;28;20051;-87
2022/08/14 12:42:43;;;;;;;3.10;2.85;;;;;;;;;;5071876;28;20119;-88
2022/08/14 12:45:12;;;;;;;2.83;2.63;;;;;;;;;;5071392;28;20025;-88
2022/08/14 12:47:40;;;;;;;3.58;3.28;;;;;;;;;;5071409;28;20067;-87
2022/08/14 12:50:09;;;;;;;3.58;3.28;;;;;;;;;;5072515;28;20082;-88
2022/08/14 12:52:39;;;;;;;3.65;3.35;;;;;;;;;;5071705;28;20033;-87
2022/08/14 12:55:06;;;;;;;4.15;3.83;;;;;;;;;;5072493;28;20488;-86
2022/08/14 12:57:51;;;;;;;3.50;3.20;;;;;;;;;;5072738;28;20035;-86
2022/08/14 13:00:19;;;;;;;3.60;3.30;;;;;;;;;;5071218;28;20024;-88
2022/08/14 13:02:47;;;;;;;8.43;7.72;;;;;;;;;;5072544;28;20031;-87
2022/08/14 13:05:14;;;;;;;16.42;15.00;;;;;;;;;;5071106;28;20036;-88
2022/08/14 13:07:41;;;;;;;5.55;5.07;;;;;;;;;;5071289;28;20016;-88
2022/08/14 13:10:09;;;;;;;3.83;3.53;;;;;;;;;;5070889;28;20043;-89
2022/08/14 13:12:39;;;;;;;3.85;3.45;;;;;;;;;;5072508;28;20029;-88
2022/08/14 13:15:23;;;;;;;3.92;3.63;;;;;;;;;;5070914;28;20391;-88
2022/08/14 13:17:51;;;;;;;3.60;3.30;;;;;;;;;;5071055;28;20082;-88
2022/08/14 13:20:19;;;;;;;3.78;3.47;;;;;;;;;;5071097;28;20475;-88
2022/08/14 13:22:45;;;;;;;4.18;3.88;;;;;;;;;;5070960;28;20071;-87
2022/08/14 13:25:13;;;;;;;4.20;3.80;;;;;;;;;;5070981;28;20024;-88
2022/08/14 13:27:39;;;;;;;3.88;3.53;;;;;;;;;;5072021;28;20024;-88
2022/08/14 13:30:09;;;;;;;4.32;4.03;;;;;;;;;;5072168;28;20044;-88
2022/08/14 13:32:39;;;;;;;4.22;3.92;;;;;;;;;;5070945;28;20056;-89
2022/08/14 13:35:06;;;;;;;4.82;4.43;;;;;;;;;;5070852;28;20035;-88
2022/08/14 13:37:32;;;;;;;3.97;3.67;;;;;;;;;;5070839;28;20025;-88
2022/08/14 13:39:58;;;;;;;4.35;3.95;;;;;;;;;;5071162;28;20032;-89
2022/08/14 13:42:26;;;;;;;4.80;4.40;;;;;;;;;;5071065;28;20036;-88
2022/08/14 13:44:53;;;;;;;4.32;3.95;;;;;;;;;;5071107;28;20475;-88
2022/08/14 13:47:22;;;;;;;4.30;2.83;;;;;;;;;;5072465;28;20059;-86
2022/08/14 13:49:49;;;;;;;3.30;2.70;;;;;;;;;;5072172;28;20033;-79
2022/08/14 13:55:21;;;;;;;4.00;2.97;;;;;;;;;;5076239;28;20090;-82
2022/08/14 13:57:48;;;;;;;3.10;2.80;;;;;;;;;;5076167;28;20082;-84
2022/08/14 14:00:14;;;;;;;2.70;2.50;;;;;;;;;;5075902;28;20051;-82
2022/08/14 14:02:41;;;;;;;3.17;2.58;;;;;;;;;;5074935;28;20090;-81
2022/08/14 14:05:08;;;;;;;3.20;2.60;;;;;;;;;;5075682;28;20025;-82
2022/08/14 14:07:35;;;;;;;3.58;3.05;;;;;;;;;;5075788;28;20111;-81
2022/08/14 14:10:03;;;;;;;3.72;2.40;;;;;;;;;;5074150;28;20044;-84
2022/08/14 14:12:30;;;;;;;5.03;2.60;;;;;;;;;;5075957;28;20024;-82
2022/08/14 14:14:58;;;;;;;3.75;2.80;;;;;;;;;;5075560;28;20020;-86
2022/08/14 14:17:24;;;;;;;3.15;2.63;;;;;;;;;;5074470;28;20082;-84
2022/08/14 14:19:52;;;;;;;2.78;2.20;;;;;;;;;;5075635;28;20024;-86
2022/08/14 14:22:18;;;;;;;1.90;1.70;;;;;;;;;;5075547;28;20449;-83
2022/08/14 14:24:45;;;;;;;2.97;2.00;;;;;;;;;;5075518;28;20033;-84
2022/08/14 14:27:18;;;;;;;2.25;2.05;;;;;;;;;;5075182;28;20024;-85
2022/08/14 14:29:47;;;;;;;2.47;2.28;;;;;;;;;;5074145;28;20040;-86
2022/08/14 14:32:15;;;;;;;3.45;2.10;;;;;;;;;;5075410;28;20024;-84
2022/08/14 14:34:42;;;;;;;2.70;2.33;;;;;;;;;;5075681;28;20064;-89
2022/08/14 14:37:14;;;;;;;3.08;2.78;;;;;;;;;;5075225;28;20032;-85
2022/08/14 14:39:41;;;;;;;4.97;3.25;;;;;;;;;;5074722;28;20024;-87
2022/08/14 14:42:08;;;;;;;6.78;5.70;;;;;;;;;;5074265;28;20025;-87
2022/08/14 14:44:39;;;;;;;7.00;5.75;;;;;;;;;;5073953;28;20060;-85
2022/08/14 14:47:10;;;;;;;4.93;3.97;;;;;;;;;;5074776;28;20037;-88
2022/08/14 14:49:38;;;;;;;4.28;3.90;;;;;;;;;;5074854;28;20131;-86
2022/08/14 14:52:04;;;;;;;4.55;3.83;;;;;;;;;;5074802;28;20040;-85
2022/08/14 14:54:31;;;;;;;4.93;4.43;;;;;;;;;;5073915;28;20033;-85
2022/08/14 14:56:58;;;;;;;4.63;4.22;;;;;;;;;;5074597;28;20391;-86
2022/08/14 14:59:24;;;;;;;5.22;4.57;;;;;;;;;;5074932;28;20030;-86
2022/08/14 15:01:52;;;;;;;4.82;4.43;;;;;;;;;;5074420;28;20107;-85
2022/08/14 15:04:18;;;;;;;5.88;5.30;;;;;;;;;;5073447;28;20032;-85
2022/08/14 15:06:44;;;;;;;5.45;4.55;;;;;;;;;;5074776;28;20038;-84
2022/08/14 15:09:10;;;;;;;9.50;8.50;;;;;;;;;;5074635;28;20025;-86